sensor_id;sensor_type;location;lat;lon;timestamp;P1;durP1;ratioP1;P2;durP2;ratioP2
25549;SDS011;13444;50.562;7.262;2024-01-16T00:01:42;8.43;;;3.47;;
25549;SDS011;13444;50.562;7.262;2024-01-16T00:04:07;9.00;;;3.23;;
25549;SDS011;13444;50.562;7.262;2024-01-16T00:06:33;7.20;;;3.37;;
25549;SDS011;13444;50.562;7.262;2024-01-16T00:08:59;8.93;;;3.70;;
25549;SDS011;13444;50.562;7.262;2024-01-16T00:11:24;9.13;;;3.50;;
25549;SDS011;13444;50.562;7.262;2024-01-16T00:13:50;9.20;;;3.40;;
25549;SDS011;13444;50.562;7.262;2024-01-16T00:16:16;9.90;;;3.50;;
25549;SDS011;13444;50.562;7.262;2024-01-16T00:18:41;7.77;;;3.70;;
25549;SDS011;13444;50.562;7.262;2024-01-16T00:21:07;9.60;;;3.40;;
25549;SDS011;13444;50.562;7.262;2024-01-16T00:23:32;9.03;;;4.03;;
25549;SDS011;13444;50.562;7.262;2024-01-16T00:25:58;8.43;;;3.60;;
25549;SDS011;13444;50.562;7.262;2024-01-16T00:28:23;9.97;;;3.17;;
25549;SDS011;13444;50.562;7.262;2024-01-16T00:30:49;6.03;;;3.53;;
25549;SDS011;13444;50.562;7.262;2024-01-16T00:33:15;9.27;;;3.60;;
25549;SDS011;13444;50.562;7.262;2024-01-16T00:35:41;7.83;;;3.60;;
25549;SDS011;13444;50.562;7.262;2024-01-16T00:38:06;7.43;;;3.30;;
25549;SDS011;13444;50.562;7.262;2024-01-16T00:40:32;8.77;;;3.40;;
25549;SDS011;13444;50.562;7.262;2024-01-16T00:42:57;7.73;;;3.77;;
25549;SDS011;13444;50.562;7.262;2024-01-16T00:45:23;10.03;;;3.60;;
25549;SDS011;13444;50.562;7.262;2024-01-16T00:47:48;10.67;;;3.93;;
25549;SDS011;13444;50.562;7.262;2024-01-16T00:50:14;9.00;;;3.43;;
25549;SDS011;13444;50.562;7.262;2024-01-16T00:52:40;4.03;;;2.50;;
25549;SDS011;13444;50.562;7.262;2024-01-16T00:55:05;9.77;;;3.33;;
25549;SDS011;13444;50.562;7.262;2024-01-16T00:57:31;11.23;;;3.77;;
25549;SDS011;13444;50.562;7.262;2024-01-16T00:59:56;9.97;;;3.23;;
25549;SDS011;13444;50.562;7.262;2024-01-16T01:02:22;12.47;;;4.13;;
25549;SDS011;13444;50.562;7.262;2024-01-16T01:04:47;10.50;;;3.87;;
25549;SDS011;13444;50.562;7.262;2024-01-16T01:07:13;10.60;;;3.67;;
25549;SDS011;13444;50.562;7.262;2024-01-16T01:09:39;11.30;;;3.93;;
25549;SDS011;13444;50.562;7.262;2024-01-16T01:12:05;9.77;;;3.53;;
25549;SDS011;13444;50.562;7.262;2024-01-16T01:14:31;9.63;;;3.60;;
25549;SDS011;13444;50.562;7.262;2024-01-16T01:16:57;6.40;;;3.20;;
25549;SDS011;13444;50.562;7.262;2024-01-16T01:19:22;9.70;;;3.60;;
25549;SDS011;13444;50.562;7.262;2024-01-16T01:21:48;8.77;;;3.47;;
25549;SDS011;13444;50.562;7.262;2024-01-16T01:24:14;8.83;;;3.20;;
25549;SDS011;13444;50.562;7.262;2024-01-16T01:26:42;9.40;;;3.10;;
25549;SDS011;13444;50.562;7.262;2024-01-16T01:29:09;9.73;;;4.10;;
25549;SDS011;13444;50.562;7.262;2024-01-16T01:31:34;11.10;;;3.60;;
25549;SDS011;13444;50.562;7.262;2024-01-16T01:34:00;9.73;;;3.27;;
25549;SDS011;13444;50.562;7.262;2024-01-16T01:36:26;6.37;;;3.07;;
25549;SDS011;13444;50.562;7.262;2024-01-16T01:38:52;8.93;;;3.23;;
25549;SDS011;13444;50.562;7.262;2024-01-16T01:41:17;8.83;;;3.17;;
25549;SDS011;13444;50.562;7.262;2024-01-16T01:43:43;9.97;;;3.50;;
25549;SDS011;13444;50.562;7.262;2024-01-16T01:46:13;7.70;;;3.00;;
25549;SDS011;13444;50.562;7.262;2024-01-16T01:48:41;6.83;;;3.10;;
25549;SDS011;13444;50.562;7.262;2024-01-16T01:51:08;9.43;;;3.57;;
25549;SDS011;13444;50.562;7.262;2024-01-16T01:53:38;10.10;;;2.60;;
25549;SDS011;13444;50.562;7.262;2024-01-16T01:56:04;8.80;;;2.87;;
25549;SDS011;13444;50.562;7.262;2024-01-16T01:58:46;3.93;;;2.80;;
25549;SDS011;13444;50.562;7.262;2024-01-16T02:01:13;8.47;;;3.00;;
25549;SDS011;13444;50.562;7.262;2024-01-16T02:03:42;10.87;;;3.83;;
25549;SDS011;13444;50.562;7.262;2024-01-16T02:06:10;11.23;;;3.50;;
25549;SDS011;13444;50.562;7.262;2024-01-16T02:08:36;7.77;;;3.20;;
25549;SDS011;13444;50.562;7.262;2024-01-16T02:11:02;9.60;;;3.40;;
25549;SDS011;13444;50.562;7.262;2024-01-16T02:13:28;7.23;;;3.27;;
25549;SDS011;13444;50.562;7.262;2024-01-16T02:15:53;14.63;;;3.57;;
25549;SDS011;13444;50.562;7.262;2024-01-16T02:18:19;6.50;;;2.97;;
25549;SDS011;13444;50.562;7.262;2024-01-16T02:20:45;9.00;;;3.27;;
25549;SDS011;13444;50.562;7.262;2024-01-16T02:23:12;8.53;;;2.80;;
25549;SDS011;13444;50.562;7.262;2024-01-16T02:25:42;9.67;;;3.37;;
25549;SDS011;13444;50.562;7.262;2024-01-16T02:28:09;7.43;;;3.30;;
25549;SDS011;13444;50.562;7.262;2024-01-16T02:30:35;6.90;;;2.53;;
25549;SDS011;13444;50.562;7.262;2024-01-16T02:33:00;8.50;;;3.00;;
25549;SDS011;13444;50.562;7.262;2024-01-16T02:35:26;10.37;;;3.20;;
25549;SDS011;13444;50.562;7.262;2024-01-16T02:37:51;7.97;;;3.67;;
25549;SDS011;13444;50.562;7.262;2024-01-16T02:40:17;10.50;;;2.90;;
25549;SDS011;13444;50.562;7.262;2024-01-16T02:42:42;6.47;;;3.83;;
25549;SDS011;13444;50.562;7.262;2024-01-16T02:45:08;8.43;;;3.27;;
25549;SDS011;13444;50.562;7.262;2024-01-16T02:47:34;12.63;;;3.33;;
25549;SDS011;13444;50.562;7.262;2024-01-16T02:50:01;8.07;;;3.03;;
25549;SDS011;13444;50.562;7.262;2024-01-16T02:52:27;8.37;;;3.20;;
25549;SDS011;13444;50.562;7.262;2024-01-16T02:54:53;7.27;;;3.23;;
25549;SDS011;13444;50.562;7.262;2024-01-16T02:57:19;5.60;;;2.60;;
25549;SDS011;13444;50.562;7.262;2024-01-16T02:59:44;8.27;;;3.33;;
25549;SDS011;13444;50.562;7.262;2024-01-16T03:02:10;7.47;;;2.80;;
25549;SDS011;13444;50.562;7.262;2024-01-16T03:04:36;8.87;;;3.27;;
25549;SDS011;13444;50.562;7.262;2024-01-16T03:07:02;8.03;;;3.20;;
25549;SDS011;13444;50.562;7.262;2024-01-16T03:09:28;8.20;;;3.73;;
25549;SDS011;13444;50.562;7.262;2024-01-16T03:11:53;8.63;;;3.00;;
25549;SDS011;13444;50.562;7.262;2024-01-16T03:14:19;6.17;;;3.20;;
25549;SDS011;13444;50.562;7.262;2024-01-16T03:16:45;9.37;;;3.27;;
25549;SDS011;13444;50.562;7.262;2024-01-16T03:19:11;9.00;;;3.03;;
25549;SDS011;13444;50.562;7.262;2024-01-16T03:21:37;9.13;;;4.37;;
25549;SDS011;13444;50.562;7.262;2024-01-16T03:24:03;7.67;;;3.23;;
25549;SDS011;13444;50.562;7.262;2024-01-16T03:26:30;11.47;;;3.80;;
25549;SDS011;13444;50.562;7.262;2024-01-16T03:28:57;9.20;;;3.47;;
25549;SDS011;13444;50.562;7.262;2024-01-16T03:31:22;5.50;;;3.40;;
25549;SDS011;13444;50.562;7.262;2024-01-16T03:33:48;6.10;;;3.17;;
25549;SDS011;13444;50.562;7.262;2024-01-16T03:36:13;9.50;;;3.50;;
25549;SDS011;13444;50.562;7.262;2024-01-16T03:38:41;8.97;;;3.27;;
25549;SDS011;13444;50.562;7.262;2024-01-16T03:41:07;9.40;;;4.03;;
25549;SDS011;13444;50.562;7.262;2024-01-16T03:43:33;9.10;;;3.27;;
25549;SDS011;13444;50.562;7.262;2024-01-16T03:45:59;8.53;;;3.40;;
25549;SDS011;13444;50.562;7.262;2024-01-16T03:48:25;9.13;;;3.33;;
25549;SDS011;13444;50.562;7.262;2024-01-16T03:50:51;9.67;;;3.00;;
25549;SDS011;13444;50.562;7.262;2024-01-16T03:53:16;7.20;;;3.33;;
25549;SDS011;13444;50.562;7.262;2024-01-16T03:55:42;8.70;;;3.33;;
25549;SDS011;13444;50.562;7.262;2024-01-16T03:58:07;5.93;;;3.53;;
25549;SDS011;13444;50.562;7.262;2024-01-16T04:00:33;7.47;;;3.53;;
25549;SDS011;13444;50.562;7.262;2024-01-16T04:02:58;10.73;;;3.67;;
25549;SDS011;13444;50.562;7.262;2024-01-16T04:05:24;9.87;;;3.87;;
25549;SDS011;13444;50.562;7.262;2024-01-16T04:07:49;12.50;;;3.80;;
25549;SDS011;13444;50.562;7.262;2024-01-16T04:10:15;9.03;;;3.20;;
25549;SDS011;13444;50.562;7.262;2024-01-16T04:12:41;9.17;;;4.10;;
25549;SDS011;13444;50.562;7.262;2024-01-16T04:15:06;13.20;;;3.83;;
25549;SDS011;13444;50.562;7.262;2024-01-16T04:17:32;7.57;;;3.40;;
25549;SDS011;13444;50.562;7.262;2024-01-16T04:19:57;9.33;;;3.47;;
25549;SDS011;13444;50.562;7.262;2024-01-16T04:22:23;10.90;;;3.97;;
25549;SDS011;13444;50.562;7.262;2024-01-16T04:24:48;8.87;;;3.63;;
25549;SDS011;13444;50.562;7.262;2024-01-16T04:27:14;10.23;;;4.10;;
25549;SDS011;13444;50.562;7.262;2024-01-16T04:29:40;9.87;;;3.33;;
25549;SDS011;13444;50.562;7.262;2024-01-16T04:32:05;8.10;;;3.67;;
25549;SDS011;13444;50.562;7.262;2024-01-16T04:34:31;7.53;;;3.37;;
25549;SDS011;13444;50.562;7.262;2024-01-16T04:36:56;7.87;;;3.33;;
25549;SDS011;13444;50.562;7.262;2024-01-16T04:39:22;8.57;;;3.60;;
25549;SDS011;13444;50.562;7.262;2024-01-16T04:41:51;7.40;;;3.90;;
25549;SDS011;13444;50.562;7.262;2024-01-16T04:44:16;8.17;;;3.73;;
25549;SDS011;13444;50.562;7.262;2024-01-16T04:46:42;9.83;;;3.53;;
25549;SDS011;13444;50.562;7.262;2024-01-16T04:49:07;6.17;;;3.30;;
25549;SDS011;13444;50.562;7.262;2024-01-16T04:51:33;10.80;;;3.93;;
25549;SDS011;13444;50.562;7.262;2024-01-16T04:53:59;6.27;;;3.40;;
25549;SDS011;13444;50.562;7.262;2024-01-16T04:56:24;7.73;;;3.70;;
25549;SDS011;13444;50.562;7.262;2024-01-16T04:58:50;7.80;;;3.60;;
25549;SDS011;13444;50.562;7.262;2024-01-16T05:01:17;11.67;;;3.67;;
25549;SDS011;13444;50.562;7.262;2024-01-16T05:03:42;6.20;;;3.70;;
25549;SDS011;13444;50.562;7.262;2024-01-16T05:06:14;10.97;;;3.60;;
25549;SDS011;13444;50.562;7.262;2024-01-16T05:08:41;10.17;;;4.30;;
25549;SDS011;13444;50.562;7.262;2024-01-16T05:11:07;7.63;;;3.63;;
25549;SDS011;13444;50.562;7.262;2024-01-16T05:13:32;9.93;;;3.93;;
25549;SDS011;13444;50.562;7.262;2024-01-16T05:15:58;8.30;;;3.80;;
25549;SDS011;13444;50.562;7.262;2024-01-16T05:18:23;7.40;;;3.37;;
25549;SDS011;13444;50.562;7.262;2024-01-16T05:20:49;7.67;;;3.37;;
25549;SDS011;13444;50.562;7.262;2024-01-16T05:23:14;8.67;;;4.03;;
25549;SDS011;13444;50.562;7.262;2024-01-16T05:25:40;8.77;;;3.80;;
25549;SDS011;13444;50.562;7.262;2024-01-16T05:28:05;9.50;;;3.43;;
25549;SDS011;13444;50.562;7.262;2024-01-16T05:30:32;7.67;;;3.43;;
25549;SDS011;13444;50.562;7.262;2024-01-16T05:32:58;8.67;;;4.10;;
25549;SDS011;13444;50.562;7.262;2024-01-16T05:35:26;9.47;;;3.90;;
25549;SDS011;13444;50.562;7.262;2024-01-16T05:37:52;8.87;;;3.83;;
25549;SDS011;13444;50.562;7.262;2024-01-16T05:40:18;9.83;;;3.43;;
25549;SDS011;13444;50.562;7.262;2024-01-16T05:42:44;9.17;;;3.60;;
25549;SDS011;13444;50.562;7.262;2024-01-16T05:45:10;7.57;;;3.07;;
25549;SDS011;13444;50.562;7.262;2024-01-16T05:47:36;6.83;;;3.13;;
25549;SDS011;13444;50.562;7.262;2024-01-16T05:50:01;12.43;;;3.37;;
25549;SDS011;13444;50.562;7.262;2024-01-16T05:52:27;6.30;;;3.23;;
25549;SDS011;13444;50.562;7.262;2024-01-16T05:54:53;11.27;;;3.70;;
25549;SDS011;13444;50.562;7.262;2024-01-16T05:57:22;6.83;;;3.33;;
25549;SDS011;13444;50.562;7.262;2024-01-16T05:59:48;7.20;;;3.47;;
25549;SDS011;13444;50.562;7.262;2024-01-16T06:02:13;11.57;;;3.67;;
25549;SDS011;13444;50.562;7.262;2024-01-16T06:04:39;9.03;;;3.67;;
25549;SDS011;13444;50.562;7.262;2024-01-16T06:07:05;12.10;;;4.30;;
25549;SDS011;13444;50.562;7.262;2024-01-16T06:09:32;13.67;;;7.57;;
25549;SDS011;13444;50.562;7.262;2024-01-16T06:11:58;20.27;;;9.10;;
25549;SDS011;13444;50.562;7.262;2024-01-16T06:14:23;12.53;;;4.57;;
25549;SDS011;13444;50.562;7.262;2024-01-16T06:16:49;19.10;;;8.20;;
25549;SDS011;13444;50.562;7.262;2024-01-16T06:19:15;10.87;;;7.00;;
25549;SDS011;13444;50.562;7.262;2024-01-16T06:21:42;11.50;;;4.90;;
25549;SDS011;13444;50.562;7.262;2024-01-16T06:24:07;12.20;;;4.20;;
25549;SDS011;13444;50.562;7.262;2024-01-16T06:26:33;6.47;;;3.67;;
25549;SDS011;13444;50.562;7.262;2024-01-16T06:28:58;8.67;;;3.87;;
25549;SDS011;13444;50.562;7.262;2024-01-16T06:31:24;11.50;;;4.60;;
25549;SDS011;13444;50.562;7.262;2024-01-16T06:33:51;7.20;;;4.20;;
25549;SDS011;13444;50.562;7.262;2024-01-16T06:36:17;12.07;;;4.10;;
25549;SDS011;13444;50.562;7.262;2024-01-16T06:38:42;7.83;;;3.90;;
25549;SDS011;13444;50.562;7.262;2024-01-16T06:41:08;8.73;;;4.47;;
25549;SDS011;13444;50.562;7.262;2024-01-16T06:43:34;6.83;;;3.37;;
25549;SDS011;13444;50.562;7.262;2024-01-16T06:46:00;8.43;;;5.17;;
25549;SDS011;13444;50.562;7.262;2024-01-16T06:48:26;10.27;;;5.67;;
25549;SDS011;13444;50.562;7.262;2024-01-16T06:50:51;15.80;;;7.03;;
25549;SDS011;13444;50.562;7.262;2024-01-16T06:53:17;7.53;;;3.80;;
25549;SDS011;13444;50.562;7.262;2024-01-16T06:55:42;7.17;;;4.13;;
25549;SDS011;13444;50.562;7.262;2024-01-16T06:58:08;16.37;;;5.23;;
25549;SDS011;13444;50.562;7.262;2024-01-16T07:00:35;7.67;;;3.90;;
25549;SDS011;13444;50.562;7.262;2024-01-16T07:03:00;9.10;;;4.13;;
25549;SDS011;13444;50.562;7.262;2024-01-16T07:05:27;12.07;;;5.17;;
25549;SDS011;13444;50.562;7.262;2024-01-16T07:07:54;9.47;;;4.63;;
25549;SDS011;13444;50.562;7.262;2024-01-16T07:10:20;15.87;;;9.40;;
25549;SDS011;13444;50.562;7.262;2024-01-16T07:12:47;19.00;;;9.20;;
25549;SDS011;13444;50.562;7.262;2024-01-16T07:15:14;18.37;;;9.50;;
25549;SDS011;13444;50.562;7.262;2024-01-16T07:17:40;20.57;;;10.00;;
25549;SDS011;13444;50.562;7.262;2024-01-16T07:20:06;18.07;;;8.60;;
25549;SDS011;13444;50.562;7.262;2024-01-16T07:22:32;20.07;;;9.07;;
25549;SDS011;13444;50.562;7.262;2024-01-16T07:24:59;21.50;;;9.80;;
25549;SDS011;13444;50.562;7.262;2024-01-16T07:27:25;16.03;;;8.47;;
25549;SDS011;13444;50.562;7.262;2024-01-16T07:29:50;13.73;;;6.13;;
25549;SDS011;13444;50.562;7.262;2024-01-16T07:32:16;14.17;;;5.80;;
25549;SDS011;13444;50.562;7.262;2024-01-16T07:34:41;8.67;;;4.87;;
25549;SDS011;13444;50.562;7.262;2024-01-16T07:37:07;7.70;;;4.47;;
25549;SDS011;13444;50.562;7.262;2024-01-16T07:39:33;9.10;;;3.50;;
25549;SDS011;13444;50.562;7.262;2024-01-16T07:41:58;12.33;;;4.27;;
25549;SDS011;13444;50.562;7.262;2024-01-16T07:44:24;8.10;;;3.43;;
25549;SDS011;13444;50.562;7.262;2024-01-16T07:46:49;4.80;;;2.70;;
25549;SDS011;13444;50.562;7.262;2024-01-16T07:49:15;7.50;;;3.10;;
25549;SDS011;13444;50.562;7.262;2024-01-16T07:51:41;4.53;;;2.90;;
25549;SDS011;13444;50.562;7.262;2024-01-16T07:54:10;7.10;;;3.00;;
25549;SDS011;13444;50.562;7.262;2024-01-16T07:56:38;14.20;;;4.83;;
25549;SDS011;13444;50.562;7.262;2024-01-16T07:59:03;12.13;;;4.00;;
25549;SDS011;13444;50.562;7.262;2024-01-16T08:01:29;8.93;;;4.93;;
25549;SDS011;13444;50.562;7.262;2024-01-16T08:03:55;11.50;;;4.53;;
25549;SDS011;13444;50.562;7.262;2024-01-16T08:06:21;11.30;;;5.43;;
25549;SDS011;13444;50.562;7.262;2024-01-16T08:08:48;13.57;;;5.00;;
25549;SDS011;13444;50.562;7.262;2024-01-16T08:11:14;9.87;;;4.13;;
25549;SDS011;13444;50.562;7.262;2024-01-16T08:13:40;13.53;;;4.23;;
25549;SDS011;13444;50.562;7.262;2024-01-16T08:16:05;8.67;;;4.07;;
25549;SDS011;13444;50.562;7.262;2024-01-16T08:18:32;6.47;;;3.50;;
25549;SDS011;13444;50.562;7.262;2024-01-16T08:20:57;7.07;;;3.23;;
25549;SDS011;13444;50.562;7.262;2024-01-16T08:23:23;7.83;;;3.40;;
25549;SDS011;13444;50.562;7.262;2024-01-16T08:25:48;7.53;;;3.50;;
25549;SDS011;13444;50.562;7.262;2024-01-16T08:28:16;9.13;;;4.00;;
25549;SDS011;13444;50.562;7.262;2024-01-16T08:30:45;11.17;;;4.10;;
25549;SDS011;13444;50.562;7.262;2024-01-16T08:33:11;7.23;;;3.80;;
25549;SDS011;13444;50.562;7.262;2024-01-16T08:35:37;8.27;;;3.37;;
25549;SDS011;13444;50.562;7.262;2024-01-16T08:38:03;9.57;;;3.60;;
25549;SDS011;13444;50.562;7.262;2024-01-16T08:40:29;13.27;;;3.50;;
25549;SDS011;13444;50.562;7.262;2024-01-16T08:42:55;9.97;;;4.00;;
25549;SDS011;13444;50.562;7.262;2024-01-16T08:45:21;9.47;;;3.50;;
25549;SDS011;13444;50.562;7.262;2024-01-16T08:47:47;8.67;;;3.67;;
25549;SDS011;13444;50.562;7.262;2024-01-16T08:50:12;11.67;;;3.20;;
25549;SDS011;13444;50.562;7.262;2024-01-16T08:52:38;11.87;;;4.17;;
25549;SDS011;13444;50.562;7.262;2024-01-16T08:55:03;10.93;;;3.40;;
25549;SDS011;13444;50.562;7.262;2024-01-16T08:57:29;10.40;;;3.87;;
25549;SDS011;13444;50.562;7.262;2024-01-16T08:59:55;11.20;;;3.03;;
25549;SDS011;13444;50.562;7.262;2024-01-16T09:02:20;9.23;;;3.33;;
25549;SDS011;13444;50.562;7.262;2024-01-16T09:04:46;8.87;;;3.13;;
25549;SDS011;13444;50.562;7.262;2024-01-16T09:07:15;8.67;;;2.83;;
25549;SDS011;13444;50.562;7.262;2024-01-16T09:09:41;10.70;;;4.30;;
25549;SDS011;13444;50.562;7.262;2024-01-16T09:12:07;7.57;;;2.70;;
25549;SDS011;13444;50.562;7.262;2024-01-16T09:14:36;6.60;;;2.80;;
25549;SDS011;13444;50.562;7.262;2024-01-16T09:17:01;8.07;;;3.30;;
25549;SDS011;13444;50.562;7.262;2024-01-16T09:19:28;11.03;;;2.70;;
25549;SDS011;13444;50.562;7.262;2024-01-16T09:21:54;9.27;;;2.80;;
25549;SDS011;13444;50.562;7.262;2024-01-16T09:24:20;9.50;;;3.90;;
25549;SDS011;13444;50.562;7.262;2024-01-16T09:26:45;10.53;;;4.70;;
25549;SDS011;13444;50.562;7.262;2024-01-16T09:29:11;8.77;;;3.30;;
25549;SDS011;13444;50.562;7.262;2024-01-16T09:31:37;9.10;;;3.00;;
25549;SDS011;13444;50.562;7.262;2024-01-16T09:34:03;10.53;;;3.27;;
25549;SDS011;13444;50.562;7.262;2024-01-16T09:36:29;3.67;;;2.47;;
25549;SDS011;13444;50.562;7.262;2024-01-16T09:38:55;8.10;;;2.70;;
25549;SDS011;13444;50.562;7.262;2024-01-16T09:41:20;9.77;;;3.00;;
25549;SDS011;13444;50.562;7.262;2024-01-16T09:43:46;8.67;;;3.07;;
25549;SDS011;13444;50.562;7.262;2024-01-16T09:46:12;9.60;;;3.17;;
25549;SDS011;13444;50.562;7.262;2024-01-16T09:48:41;5.07;;;2.80;;
25549;SDS011;13444;50.562;7.262;2024-01-16T09:51:09;7.50;;;2.73;;
25549;SDS011;13444;50.562;7.262;2024-01-16T09:53:39;6.30;;;3.00;;
25549;SDS011;13444;50.562;7.262;2024-01-16T09:56:06;6.23;;;2.73;;
25549;SDS011;13444;50.562;7.262;2024-01-16T09:58:39;3.83;;;2.20;;
25549;SDS011;13444;50.562;7.262;2024-01-16T10:01:05;8.20;;;2.90;;
25549;SDS011;13444;50.562;7.262;2024-01-16T10:03:31;9.10;;;2.87;;
25549;SDS011;13444;50.562;7.262;2024-01-16T10:05:59;6.23;;;2.43;;
25549;SDS011;13444;50.562;7.262;2024-01-16T10:08:26;10.10;;;2.50;;
25549;SDS011;13444;50.562;7.262;2024-01-16T10:10:53;5.03;;;2.50;;
25549;SDS011;13444;50.562;7.262;2024-01-16T10:13:19;8.83;;;2.87;;
25549;SDS011;13444;50.562;7.262;2024-01-16T10:15:48;9.53;;;2.70;;
25549;SDS011;13444;50.562;7.262;2024-01-16T10:18:22;8.93;;;2.43;;
25549;SDS011;13444;50.562;7.262;2024-01-16T10:20:49;10.13;;;2.30;;
25549;SDS011;13444;50.562;7.262;2024-01-16T10:23:22;8.93;;;2.07;;
25549;SDS011;13444;50.562;7.262;2024-01-16T10:26:04;8.30;;;2.10;;
25549;SDS011;13444;50.562;7.262;2024-01-16T10:28:37;5.90;;;2.27;;
25549;SDS011;13444;50.562;7.262;2024-01-16T10:31:09;6.17;;;1.90;;
25549;SDS011;13444;50.562;7.262;2024-01-16T10:33:36;5.53;;;2.23;;
25549;SDS011;13444;50.562;7.262;2024-01-16T10:38:37;8.07;;;2.37;;
25549;SDS011;13444;50.562;7.262;2024-01-16T10:41:04;5.70;;;1.97;;
25549;SDS011;13444;50.562;7.262;2024-01-16T10:43:31;3.63;;;1.80;;
25549;SDS011;13444;50.562;7.262;2024-01-16T10:46:06;5.47;;;2.00;;
25549;SDS011;13444;50.562;7.262;2024-01-16T10:48:36;7.13;;;1.77;;
25549;SDS011;13444;50.562;7.262;2024-01-16T10:51:03;7.33;;;2.40;;
25549;SDS011;13444;50.562;7.262;2024-01-16T10:53:32;4.90;;;1.77;;
25549;SDS011;13444;50.562;7.262;2024-01-16T10:55:59;6.90;;;1.83;;
25549;SDS011;13444;50.562;7.262;2024-01-16T10:58:27;4.73;;;1.83;;
25549;SDS011;13444;50.562;7.262;2024-01-16T11:00:57;5.50;;;1.83;;
25549;SDS011;13444;50.562;7.262;2024-01-16T11:03:34;4.27;;;1.50;;
25549;SDS011;13444;50.562;7.262;2024-01-16T11:06:04;5.70;;;1.70;;
25549;SDS011;13444;50.562;7.262;2024-01-16T11:08:32;5.67;;;2.30;;
25549;SDS011;13444;50.562;7.262;2024-01-16T11:11:01;6.93;;;2.60;;
25549;SDS011;13444;50.562;7.262;2024-01-16T11:13:28;8.00;;;2.33;;
25549;SDS011;13444;50.562;7.262;2024-01-16T11:16:04;4.37;;;1.77;;
25549;SDS011;13444;50.562;7.262;2024-01-16T11:18:32;6.50;;;1.60;;
25549;SDS011;13444;50.562;7.262;2024-01-16T11:20:59;5.40;;;1.60;;
25549;SDS011;13444;50.562;7.262;2024-01-16T11:23:27;5.53;;;1.73;;
25549;SDS011;13444;50.562;7.262;2024-01-16T11:25:53;5.40;;;1.80;;
25549;SDS011;13444;50.562;7.262;2024-01-16T11:28:19;5.30;;;1.93;;
25549;SDS011;13444;50.562;7.262;2024-01-16T11:30:45;7.37;;;2.20;;
25549;SDS011;13444;50.562;7.262;2024-01-16T11:39:16;5.63;;;1.60;;
25549;SDS011;13444;50.562;7.262;2024-01-16T11:41:49;3.77;;;1.60;;
25549;SDS011;13444;50.562;7.262;2024-01-16T11:47:06;4.00;;;1.60;;
25549;SDS011;13444;50.562;7.262;2024-01-16T11:49:33;3.70;;;1.90;;
25549;SDS011;13444;50.562;7.262;2024-01-16T11:52:02;7.40;;;2.10;;
25549;SDS011;13444;50.562;7.262;2024-01-16T11:54:28;7.70;;;1.70;;
25549;SDS011;13444;50.562;7.262;2024-01-16T11:57:19;7.63;;;2.03;;
25549;SDS011;13444;50.562;7.262;2024-01-16T12:00:15;4.07;;;1.60;;
25549;SDS011;13444;50.562;7.262;2024-01-16T12:05:10;4.50;;;1.42;;
25549;SDS011;13444;50.562;7.262;2024-01-16T12:07:49;5.47;;;2.03;;
25549;SDS011;13444;50.562;7.262;2024-01-16T12:10:16;6.93;;;2.00;;
25549;SDS011;13444;50.562;7.262;2024-01-16T12:12:43;4.97;;;1.40;;
25549;SDS011;13444;50.562;7.262;2024-01-16T12:15:13;3.77;;;1.73;;
25549;SDS011;13444;50.562;7.262;2024-01-16T12:17:50;6.43;;;2.00;;
25549;SDS011;13444;50.562;7.262;2024-01-16T12:20:20;7.85;;;1.58;;
25549;SDS011;13444;50.562;7.262;2024-01-16T12:22:59;5.50;;;1.87;;
25549;SDS011;13444;50.562;7.262;2024-01-16T12:25:27;3.85;;;1.83;;
25549;SDS011;13444;50.562;7.262;2024-01-16T12:27:54;8.60;;;1.97;;
25549;SDS011;13444;50.562;7.262;2024-01-16T12:30:26;7.03;;;2.10;;
25549;SDS011;13444;50.562;7.262;2024-01-16T12:33:14;6.00;;;1.83;;
25549;SDS011;13444;50.562;7.262;2024-01-16T12:35:40;5.82;;;1.88;;
25549;SDS011;13444;50.562;7.262;2024-01-16T12:38:07;5.87;;;2.27;;
25549;SDS011;13444;50.562;7.262;2024-01-16T12:40:34;4.57;;;1.70;;
25549;SDS011;13444;50.562;7.262;2024-01-16T12:43:12;4.37;;;1.73;;
25549;SDS011;13444;50.562;7.262;2024-01-16T12:45:38;5.00;;;2.27;;
25549;SDS011;13444;50.562;7.262;2024-01-16T12:48:04;8.37;;;2.23;;
25549;SDS011;13444;50.562;7.262;2024-01-16T12:50:30;5.33;;;1.80;;
25549;SDS011;13444;50.562;7.262;2024-01-16T12:53:04;6.00;;;1.73;;
25549;SDS011;13444;50.562;7.262;2024-01-16T12:55:34;4.40;;;2.03;;
25549;SDS011;13444;50.562;7.262;2024-01-16T12:58:16;6.93;;;1.63;;
25549;SDS011;13444;50.562;7.262;2024-01-16T13:00:46;5.73;;;1.97;;
25549;SDS011;13444;50.562;7.262;2024-01-16T13:03:16;4.77;;;1.40;;
25549;SDS011;13444;50.562;7.262;2024-01-16T13:05:45;3.63;;;1.70;;
25549;SDS011;13444;50.562;7.262;2024-01-16T13:08:19;4.20;;;1.87;;
25549;SDS011;13444;50.562;7.262;2024-01-16T13:11:01;5.63;;;1.70;;
25549;SDS011;13444;50.562;7.262;2024-01-16T13:13:30;5.97;;;1.70;;
25549;SDS011;13444;50.562;7.262;2024-01-16T13:15:56;4.53;;;1.83;;
25549;SDS011;13444;50.562;7.262;2024-01-16T13:18:26;4.67;;;2.23;;
25549;SDS011;13444;50.562;7.262;2024-01-16T13:20:54;5.37;;;1.63;;
25549;SDS011;13444;50.562;7.262;2024-01-16T13:23:20;4.97;;;1.90;;
25549;SDS011;13444;50.562;7.262;2024-01-16T13:25:47;7.87;;;2.00;;
25549;SDS011;13444;50.562;7.262;2024-01-16T13:28:15;3.07;;;1.60;;
25549;SDS011;13444;50.562;7.262;2024-01-16T13:30:42;5.30;;;1.73;;
25549;SDS011;13444;50.562;7.262;2024-01-16T13:33:08;5.77;;;1.87;;
25549;SDS011;13444;50.562;7.262;2024-01-16T13:35:35;3.67;;;1.77;;
25549;SDS011;13444;50.562;7.262;2024-01-16T13:38:02;5.87;;;1.80;;
25549;SDS011;13444;50.562;7.262;2024-01-16T13:40:29;5.53;;;2.40;;
25549;SDS011;13444;50.562;7.262;2024-01-16T13:42:55;5.50;;;2.60;;
25549;SDS011;13444;50.562;7.262;2024-01-16T13:45:20;5.53;;;2.50;;
25549;SDS011;13444;50.562;7.262;2024-01-16T13:47:46;4.57;;;2.43;;
25549;SDS011;13444;50.562;7.262;2024-01-16T13:50:11;4.47;;;1.67;;
25549;SDS011;13444;50.562;7.262;2024-01-16T13:52:37;7.20;;;2.30;;
25549;SDS011;13444;50.562;7.262;2024-01-16T13:55:05;6.73;;;2.27;;
25549;SDS011;13444;50.562;7.262;2024-01-16T13:57:31;5.63;;;1.97;;
25549;SDS011;13444;50.562;7.262;2024-01-16T13:59:57;7.30;;;2.70;;
25549;SDS011;13444;50.562;7.262;2024-01-16T14:02:23;5.67;;;2.27;;
25549;SDS011;13444;50.562;7.262;2024-01-16T14:04:49;6.33;;;2.40;;
25549;SDS011;13444;50.562;7.262;2024-01-16T14:07:15;4.67;;;2.60;;
25549;SDS011;13444;50.562;7.262;2024-01-16T14:09:41;6.57;;;2.67;;
25549;SDS011;13444;50.562;7.262;2024-01-16T14:12:07;5.63;;;2.40;;
25549;SDS011;13444;50.562;7.262;2024-01-16T14:14:33;8.17;;;2.33;;
25549;SDS011;13444;50.562;7.262;2024-01-16T14:16:59;4.33;;;2.30;;
25549;SDS011;13444;50.562;7.262;2024-01-16T14:19:26;5.60;;;2.27;;
25549;SDS011;13444;50.562;7.262;2024-01-16T14:21:53;8.03;;;2.23;;
25549;SDS011;13444;50.562;7.262;2024-01-16T14:24:19;5.80;;;2.53;;
25549;SDS011;13444;50.562;7.262;2024-01-16T14:26:45;6.33;;;2.37;;
25549;SDS011;13444;50.562;7.262;2024-01-16T14:29:10;6.73;;;2.33;;
25549;SDS011;13444;50.562;7.262;2024-01-16T14:31:36;5.87;;;2.10;;
25549;SDS011;13444;50.562;7.262;2024-01-16T14:34:02;5.20;;;2.40;;
25549;SDS011;13444;50.562;7.262;2024-01-16T14:36:28;5.13;;;2.30;;
25549;SDS011;13444;50.562;7.262;2024-01-16T14:38:55;4.90;;;2.40;;
25549;SDS011;13444;50.562;7.262;2024-01-16T14:41:21;5.47;;;2.37;;
25549;SDS011;13444;50.562;7.262;2024-01-16T14:43:47;7.43;;;3.60;;
25549;SDS011;13444;50.562;7.262;2024-01-16T14:46:13;6.87;;;3.30;;
25549;SDS011;13444;50.562;7.262;2024-01-16T14:48:44;9.07;;;3.47;;
25549;SDS011;13444;50.562;7.262;2024-01-16T14:51:10;7.37;;;3.50;;
25549;SDS011;13444;50.562;7.262;2024-01-16T14:53:36;11.83;;;3.37;;
25549;SDS011;13444;50.562;7.262;2024-01-16T14:56:02;8.87;;;4.07;;
25549;SDS011;13444;50.562;7.262;2024-01-16T14:58:29;7.13;;;2.60;;